Los Angeles, California
Traffic Map
Current Weather Conditions
Los Angeles, California
Clear
Clear
67°
Feels Like: 67°
Wind Chill: 67° Ceiling: Unl
Heat Index: 67° Visibility: 10mi
Dew Point: 40° Wind: 3mph
Humidity: 37% Direction: ° ()
Pressure: 29.84in Gusts: 0mph
Raw Report DataKCQT 282147Z AUTO VRB03KT 10SM CLR 19/04 A2984 RMK AO2 SLP104 T01940044
Traffic Incident Summary
Active as of:
Severity:
Category:
InformationThere was an issue retrieving the traffic information for this location. Please try a different location or try again shortly.
Advertisements
Track Severe Weather on mobile